Winnetoon, NE (68789)

10:35 AM CDT on July 24, 2014 (GMT -0500)
KNEEWING7 Elev 1929 ft | 42.24 °N, 98.24 °W | Change Station

Current weather conditions updated 12 seconds ago

Partly Cloudy
Partly Cloudy
74.6 °F
Feels Like 76 °F
N
6.0
Wind Variable Wind from East
Gusts 14.0 mph

Today is forecast to be Warmer than yesterday.

Today
High -- | Low -- °F
--% Chance of Precip.
Yesterday
High -- | Low -- °F
Precip. -- in
6:16 AM 9:00 PM
Waning Crescent, 5% visible
Pressure 30.04 in
Visibility 10.0 miles
Clouds Clear
Heat Index 76 °F
Dew Point 65 °F
Humidity 72%
Rainfall -999.00 in
Snow Depth Not available.
UV 6 out of 12
Pollen 6.20 out of 12
Air Quality Not available.
Flu Activity Not available.
METAR KONL 241515Z AUTO 13016KT 10SM CLR 25/16 A3004 RMK AO2 LTG DSNT N T02470164

More Conditions Fewer Conditions

Pressure 30.04 in
Visibility 10.0 miles
Clouds Clear
Heat Index 76 °F
Dew Point 65 °F
Humidity 72%
Rainfall -999.00 in
Snow Depth Not available.
UV 6 out of 12
Pollen 6.20 out of 12
Air Quality Not available.
Flu Activity Not available.
METAR KONL 241515Z AUTO 13016KT 10SM CLR 25/16 A3004 RMK AO2 LTG DSNT N T02470164

More Conditions Fewer Conditions

10-Day Weather Forecast

Almanac

Astronomy

Jul. 24, 2014 Rise Set
Actual Time 6:16 AM CDT 9:00 PM CDT
Civil Twilight 5:43 AM CDT 9:33 PM CDT
Nautical Twilight 5:02 AM CDT 10:14 PM CDT
Astronomical Twilight 4:15 AM CDT 11:01 PM CDT
Moon 4:26 AM CDT 7:15 PM CDT
Length of Visible Light 15h 49m
Length of Day
14h 43m
Tomorrow will be 1m 56s shorter.
Waning Crescent, 5% of the Moon is Illuminated
Today
Waning Crescent
Jul 26
New
Aug 3
First Quarter
Aug 10
Full
Aug 17
Last Quarter

Today's Extremes

State Highs State Lows

Community

WunderPhotos

Upload Photos

1,737,042 photos uploaded!

Nearby

Snow Depth

Station Depth Elevation
No new snow has been reported.

Earthquake Activity

City Distance Mag. Time & Date
No recent earthquake activity has been reported nearby.
Minimum magnitude displayed is 2.5.

Coastal Water Temperatures

Place Temperature
No Stations Reporting

Nearby Weather Stations

Station Location Temp. Heat Index Dew Point Humidity Wind Precip. Elev Updated Type
Ewing, NE 74.6 °F 76 °F 65 °F 72% East  at  6.0 mph 0.00 in / hr 1929 ft 10:35 AM CDT Normal
50196 US Highway 20, Inman, NE 73.0 °F 77 °F 46 °F 38% ESE  at  19.0 mph 0.00 in / hr 1903 ft 10:35 AM CDT Rapid Fire

Show More Stations Show Fewer Stations